This is the latest recevied weather packets stored in our database for station/object WX6HNX-5. If no packets are shown the sender has not sent any weather packets the latest 1 day(s).
| Time | Temp. | Humidity | Pressure | Rain* | Wind** | Luminosity | Snow |
|---|---|---|---|---|---|---|---|
| 1778082090 | 16.11° C | 73% | 1019.7 hPa | 0 mm | - | - | - |
| 1778081490 | 15.56° C | 75% | 1019.7 hPa | 0 mm | - | - | - |
| 1778081190 | 15° C | 75% | 1019.7 hPa | 0 mm | - | - | - |
| 1778080890 | 15° C | 76% | 1019.8 hPa | 0 mm | - | - | - |
| 1778080592 | 15° C | 76% | 1019.8 hPa | 0 mm | - | - | - |
| 1778080290 | 14.44° C | 77% | 1019.9 hPa | 0 mm | - | - | - |
| 1778079990 | 14.44° C | 77% | 1019.8 hPa | 0 mm | - | - | - |
| 1778079690 | 14.44° C | 76% | 1019.8 hPa | 0 mm | - | - | - |
| 1778079390 | 14.44° C | 76% | 1019.8 hPa | 0 mm | - | - | - |
| 1778078983 | 14.44° C | 78% | 1019.8 hPa | 0 mm | - | - | - |
| 1778078683 | 13.89° C | 79% | 1019.7 hPa | 0 mm | - | - | - |
| 1778078383 | 13.89° C | 79% | 1019.7 hPa | 0 mm | - | - | - |
| 1778078083 | 13.33° C | 80% | 1019.7 hPa | 0 mm | - | - | - |
| 1778077783 | 13.33° C | 81% | 1019.7 hPa | 0 mm | - | - | - |
| 1778077483 | 12.78° C | 82% | 1019.6 hPa | 0 mm | - | - | - |
| 1778075683 | 11.67° C | 84% | 1019.2 hPa | 0 mm | - | - | - |
| 1778075383 | 11.67° C | 84% | 1019.1 hPa | 0 mm | - | - | - |
| 1778075083 | 11.11° C | 84% | 1019.1 hPa | 0 mm | - | - | - |
| 1778074183 | 11.11° C | 84% | 1019 hPa | 0 mm | - | - | - |
| 1778073583 | 11.11° C | 83% | 1018.9 hPa | 0 mm | - | - | - |
| 1778073284 | 11.11° C | 83% | 1018.9 hPa | 0 mm | - | - | - |
| 1778072983 | 11.11° C | 82% | 1018.8 hPa | 0 mm | - | - | - |
| 1778072683 | 11.67° C | 82% | 1018.8 hPa | 0 mm | - | - | - |
| 1778068024 | 13.33° C | 77% | 1018.1 hPa | 0 mm | - | - | - |
| 1778066824 | 13.33° C | 75% | 1018 hPa | 0 mm | - | - | - |
* Rain latest hour (hover to see other rain measurements)
** Current wind speed in m/s (hover to see current wind gust speed)